Time;durP1;ratioP1;P1;durP2;ratioP2;P2;SDS_P1;SDS_P2;PMS_P1;PMS_P2;Temp;Humidity;BMP_temperature;BMP_pressure;BME280_temperature;BME280_humidity;BME280_pressure;Samples;Min_cycle;Max_cycle;Signal;HPM_P1;HPM_P2
2022/10/28 00:02:04;;;;;;;14.03;7.60;;;;;;;;;;4439274;32;20220;-86
2022/10/28 00:04:31;;;;;;;14.17;7.57;;;;;;;;;;4439586;32;20234;-86
2022/10/28 00:07:00;;;;;;;13.83;7.43;;;;;;;;;;4439469;32;20224;-86
2022/10/28 00:09:29;;;;;;;11.50;7.47;;;;;;;;;;4438529;32;20297;-86
2022/10/28 00:11:55;;;;;;;14.97;8.20;;;;;;;;;;4438809;32;20252;-86
2022/10/28 00:14:22;;;;;;;14.63;7.93;;;;;;;;;;4439573;32;20200;-86
2022/10/28 00:16:49;;;;;;;10.63;7.67;;;;;;;;;;4439032;32;20225;-86
2022/10/28 00:19:16;;;;;;;19.47;8.17;;;;;;;;;;4438581;32;20249;-86
2022/10/28 00:21:45;;;;;;;12.57;9.47;;;;;;;;;;4439222;32;20270;-86
2022/10/28 00:24:13;;;;;;;18.33;10.37;;;;;;;;;;4439320;32;20221;-86
2022/10/28 00:26:43;;;;;;;15.97;8.33;;;;;;;;;;4438751;32;20212;-86
2022/10/28 00:29:12;;;;;;;18.80;9.77;;;;;;;;;;4438138;32;20249;-86
2022/10/28 00:31:40;;;;;;;11.37;8.80;;;;;;;;;;4439215;32;20272;-86
2022/10/28 00:34:09;;;;;;;12.67;9.73;;;;;;;;;;4439228;32;20275;-86
2022/10/28 00:36:40;;;;;;;17.73;9.67;;;;;;;;;;4438669;32;20249;-86
2022/10/28 00:39:11;;;;;;;16.10;8.53;;;;;;;;;;4439443;32;20258;-86
2022/10/28 00:41:44;;;;;;;11.77;8.00;;;;;;;;;;4439020;32;20542;-86
2022/10/28 00:44:48;;;;;;;17.90;7.87;;;;;;;;;;4439083;32;20637;-87
2022/10/28 00:47:34;;;;;;;14.20;7.90;;;;;;;;;;4439039;32;20261;-85
2022/10/28 00:50:12;;;;;;;12.90;8.07;;;;;;;;;;4438671;32;20229;-86
2022/10/28 00:52:40;;;;;;;19.33;10.20;;;;;;;;;;4438984;32;20208;-86
2022/10/28 00:55:09;;;;;;;15.47;9.37;;;;;;;;;;4438417;32;20539;-86
2022/10/28 00:57:38;;;;;;;13.77;7.83;;;;;;;;;;4438939;32;20221;-86
2022/10/28 01:00:07;;;;;;;13.40;7.90;;;;;;;;;;4438334;32;20734;-86
2022/10/28 01:02:40;;;;;;;12.87;8.63;;;;;;;;;;4439004;32;20228;-86
2022/10/28 01:05:08;;;;;;;19.90;8.70;;;;;;;;;;4438773;32;20267;-86
2022/10/28 01:07:35;;;;;;;15.97;8.90;;;;;;;;;;4437883;32;20241;-86
2022/10/28 01:10:03;;;;;;;14.87;8.00;;;;;;;;;;4437263;32;20247;-85
2022/10/28 01:12:35;;;;;;;17.90;9.23;;;;;;;;;;4438244;32;20209;-85
2022/10/28 01:15:14;;;;;;;19.83;9.00;;;;;;;;;;4438281;32;20229;-86
2022/10/28 01:17:55;;;;;;;21.87;10.33;;;;;;;;;;4438672;32;20223;-86
2022/10/28 01:20:54;;;;;;;15.30;10.10;;;;;;;;;;4438074;32;20228;-86
2022/10/28 01:23:28;;;;;;;12.97;8.80;;;;;;;;;;4438599;32;20227;-86
2022/10/28 01:26:32;;;;;;;12.63;8.93;;;;;;;;;;4438744;32;20265;-86
2022/10/28 01:29:30;;;;;;;18.83;8.93;;;;;;;;;;4439180;32;20221;-86
2022/10/28 01:32:05;;;;;;;14.87;9.67;;;;;;;;;;4439179;32;20263;-85
2022/10/28 01:34:37;;;;;;;23.13;12.13;;;;;;;;;;4439106;32;20600;-86
2022/10/28 01:37:12;;;;;;;22.23;15.37;;;;;;;;;;4439514;32;20249;-85
2022/10/28 01:39:49;;;;;;;20.37;12.97;;;;;;;;;;4438492;32;20238;-86
2022/10/28 01:42:25;;;;;;;21.17;12.50;;;;;;;;;;4438366;32;20204;-86
2022/10/28 01:44:59;;;;;;;22.57;12.47;;;;;;;;;;4437835;32;20236;-86
2022/10/28 01:47:32;;;;;;;23.60;12.83;;;;;;;;;;4438324;32;20223;-86
2022/10/28 01:50:03;;;;;;;20.17;11.83;;;;;;;;;;4437780;32;20229;-85
2022/10/28 01:52:32;;;;;;;17.03;10.73;;;;;;;;;;4438143;32;20214;-85
2022/10/28 01:55:04;;;;;;;15.53;10.13;;;;;;;;;;4438598;32;20270;-85
2022/10/28 01:57:38;;;;;;;16.43;9.27;;;;;;;;;;4438122;32;20261;-86
2022/10/28 02:00:07;;;;;;;19.63;9.17;;;;;;;;;;4436000;32;20220;-86
2022/10/28 02:02:37;;;;;;;17.93;9.00;;;;;;;;;;4437976;32;20209;-85
2022/10/28 02:05:26;;;;;;;21.70;9.27;;;;;;;;;;4437537;32;20293;-85
2022/10/28 02:07:59;;;;;;;19.03;10.23;;;;;;;;;;4437490;32;20296;-86
2022/10/28 02:10:33;;;;;;;12.77;8.97;;;;;;;;;;4437494;32;20239;-86
2022/10/28 02:13:03;;;;;;;13.67;8.37;;;;;;;;;;4438008;32;20202;-85
2022/10/28 02:15:41;;;;;;;12.00;8.17;;;;;;;;;;4437375;32;20304;-86
2022/10/28 02:18:25;;;;;;;13.70;8.77;;;;;;;;;;4437861;32;20267;-87
2022/10/28 02:21:01;;;;;;;16.63;10.30;;;;;;;;;;4437707;32;20209;-85
2022/10/28 02:23:39;;;;;;;20.03;9.90;;;;;;;;;;4437857;32;20272;-87
2022/10/28 02:26:14;;;;;;;17.10;11.20;;;;;;;;;;4437541;32;20752;-86
2022/10/28 02:28:48;;;;;;;15.73;10.00;;;;;;;;;;4437852;32;20232;-86
2022/10/28 02:31:22;;;;;;;16.80;9.70;;;;;;;;;;4437635;32;20231;-86
2022/10/28 02:33:58;;;;;;;16.93;8.90;;;;;;;;;;4437726;32;20209;-86
2022/10/28 02:36:27;;;;;;;15.97;9.27;;;;;;;;;;4437317;32;20309;-86
2022/10/28 02:38:58;;;;;;;13.00;8.97;;;;;;;;;;4437716;32;20213;-86
2022/10/28 02:41:30;;;;;;;18.57;9.37;;;;;;;;;;4437396;32;20569;-86
2022/10/28 02:44:01;;;;;;;21.90;9.60;;;;;;;;;;4437630;32;20663;-86
2022/10/28 02:46:30;;;;;;;17.63;9.80;;;;;;;;;;4436615;32;20291;-86
2022/10/28 02:49:03;;;;;;;17.00;9.57;;;;;;;;;;4437094;32;20287;-86
2022/10/28 02:51:37;;;;;;;15.23;10.67;;;;;;;;;;4438709;32;20683;-86
2022/10/28 02:54:09;;;;;;;18.73;9.43;;;;;;;;;;4439879;32;20550;-86
2022/10/28 02:56:39;;;;;;;22.53;11.10;;;;;;;;;;4440417;32;20229;-86
2022/10/28 02:59:11;;;;;;;22.07;10.87;;;;;;;;;;4440369;32;20741;-84
2022/10/28 03:01:41;;;;;;;17.90;11.20;;;;;;;;;;4439275;32;20330;-86
2022/10/28 03:04:10;;;;;;;18.43;10.30;;;;;;;;;;4440604;32;20291;-86
2022/10/28 03:06:38;;;;;;;18.23;9.63;;;;;;;;;;4440280;32;20351;-84
2022/10/28 03:09:04;;;;;;;19.03;10.53;;;;;;;;;;4440522;32;20196;-86
2022/10/28 03:11:31;;;;;;;19.23;11.53;;;;;;;;;;4439949;32;20592;-86
2022/10/28 03:14:03;;;;;;;23.73;12.37;;;;;;;;;;4440560;32;20276;-86
2022/10/28 03:16:30;;;;;;;22.47;13.40;;;;;;;;;;4440396;32;20209;-86
2022/10/28 03:19:00;;;;;;;21.43;13.00;;;;;;;;;;4439864;32;20285;-86
2022/10/28 03:21:29;;;;;;;25.00;14.50;;;;;;;;;;4440465;32;20276;-86
2022/10/28 03:23:56;;;;;;;19.27;11.63;;;;;;;;;;4439910;32;20221;-86
2022/10/28 03:26:23;;;;;;;26.40;12.07;;;;;;;;;;4439726;32;20234;-86
2022/10/28 03:28:53;;;;;;;33.70;14.57;;;;;;;;;;4439713;32;20559;-86
2022/10/28 03:31:20;;;;;;;24.77;13.80;;;;;;;;;;4439961;32;20594;-86
2022/10/28 03:33:49;;;;;;;19.40;12.10;;;;;;;;;;4439258;32;20248;-86
2022/10/28 03:36:16;;;;;;;22.10;12.20;;;;;;;;;;4439734;32;20223;-86
2022/10/28 03:38:44;;;;;;;18.23;12.17;;;;;;;;;;4439570;32;20225;-86
2022/10/28 03:41:11;;;;;;;20.97;11.80;;;;;;;;;;4438602;32;20259;-86
2022/10/28 03:43:38;;;;;;;23.47;11.53;;;;;;;;;;4440089;32;20306;-84
2022/10/28 03:46:06;;;;;;;25.43;12.60;;;;;;;;;;4440136;32;20213;-85
2022/10/28 03:48:34;;;;;;;29.20;12.67;;;;;;;;;;4440196;32;20224;-88
2022/10/28 03:51:01;;;;;;;18.70;12.20;;;;;;;;;;4443418;32;20548;-86
2022/10/28 03:53:27;;;;;;;16.80;12.77;;;;;;;;;;4446063;32;20841;-87
2022/10/28 03:55:57;;;;;;;28.17;12.87;;;;;;;;;;4445820;32;20272;-88
2022/10/28 03:58:25;;;;;;;21.63;12.57;;;;;;;;;;4445926;32;20221;-87
2022/10/28 04:00:54;;;;;;;20.37;11.67;;;;;;;;;;4441810;32;20217;-88
2022/10/28 04:03:23;;;;;;;24.40;11.90;;;;;;;;;;4442569;32;20266;-85
2022/10/28 04:05:50;;;;;;;23.83;11.90;;;;;;;;;;4448108;32;20689;-87
2022/10/28 04:08:18;;;;;;;19.03;11.97;;;;;;;;;;4439967;32;20234;-86
2022/10/28 04:10:45;;;;;;;38.03;18.63;;;;;;;;;;4438719;32;20682;-85
2022/10/28 04:13:14;;;;;;;39.03;18.47;;;;;;;;;;4439843;32;20205;-85
2022/10/28 04:15:41;;;;;;;45.93;28.40;;;;;;;;;;4439355;32;20297;-86
2022/10/28 04:18:10;;;;;;;28.33;17.00;;;;;;;;;;4439918;32;20345;-85
2022/10/28 04:20:36;;;;;;;25.73;14.73;;;;;;;;;;4439687;32;20231;-87
2022/10/28 04:23:05;;;;;;;22.53;13.90;;;;;;;;;;4438895;32;20307;-85
2022/10/28 04:25:32;;;;;;;23.03;14.00;;;;;;;;;;4438320;32;20233;-85
2022/10/28 04:27:59;;;;;;;44.17;13.53;;;;;;;;;;4437956;32;20672;-85
2022/10/28 04:30:27;;;;;;;50.80;14.60;;;;;;;;;;4439587;32;20300;-85
2022/10/28 04:32:54;;;;;;;27.27;17.60;;;;;;;;;;4438942;32;20229;-85
2022/10/28 04:35:23;;;;;;;31.20;18.67;;;;;;;;;;4438780;32;20273;-85
2022/10/28 04:37:50;;;;;;;36.83;21.70;;;;;;;;;;4438991;32;20221;-85
2022/10/28 04:40:21;;;;;;;40.33;20.47;;;;;;;;;;4438716;32;20233;-85
2022/10/28 04:42:48;;;;;;;33.57;20.23;;;;;;;;;;4439116;32;20205;-85
2022/10/28 04:45:15;;;;;;;36.70;18.40;;;;;;;;;;4438718;32;20232;-85
2022/10/28 04:47:43;;;;;;;31.27;19.10;;;;;;;;;;4438541;32;20209;-85
2022/10/28 04:50:10;;;;;;;28.40;18.60;;;;;;;;;;4438526;32;20224;-85
2022/10/28 04:52:37;;;;;;;31.10;17.80;;;;;;;;;;4437348;32;20237;-85
2022/10/28 04:55:05;;;;;;;25.73;13.37;;;;;;;;;;4438498;32;20224;-88
2022/10/28 04:57:31;;;;;;;36.93;17.47;;;;;;;;;;4438883;32;20205;-86
2022/10/28 04:59:58;;;;;;;33.03;18.43;;;;;;;;;;4438315;32;20314;-85
2022/10/28 05:02:25;;;;;;;33.20;20.73;;;;;;;;;;4438324;32;20205;-86
2022/10/28 05:04:53;;;;;;;33.50;19.30;;;;;;;;;;4438425;32;20268;-86
2022/10/28 05:07:20;;;;;;;36.70;19.83;;;;;;;;;;4438307;32;20553;-85
2022/10/28 05:09:47;;;;;;;32.53;21.70;;;;;;;;;;4438385;32;20247;-86
2022/10/28 05:12:14;;;;;;;38.03;19.47;;;;;;;;;;4438889;32;20212;-86
2022/10/28 05:14:41;;;;;;;34.00;19.17;;;;;;;;;;4437982;32;20224;-86
2022/10/28 05:17:08;;;;;;;42.37;24.87;;;;;;;;;;4438189;32;20355;-86
2022/10/28 05:19:35;;;;;;;39.73;20.57;;;;;;;;;;4438210;32;20236;-86
2022/10/28 05:22:04;;;;;;;36.37;20.40;;;;;;;;;;4438127;32;20270;-86
2022/10/28 05:24:31;;;;;;;46.07;22.20;;;;;;;;;;4437892;32;20232;-86
2022/10/28 05:27:01;;;;;;;50.63;20.97;;;;;;;;;;4437912;32;20209;-86
2022/10/28 05:29:28;;;;;;;38.90;21.03;;;;;;;;;;4438114;32;20221;-86
2022/10/28 05:31:55;;;;;;;51.83;21.87;;;;;;;;;;4438580;32;20227;-86
2022/10/28 05:34:22;;;;;;;45.43;21.67;;;;;;;;;;4438405;32;20242;-86
2022/10/28 05:36:49;;;;;;;47.17;22.43;;;;;;;;;;4438042;32;20272;-87
2022/10/28 05:39:18;;;;;;;44.37;22.67;;;;;;;;;;4437057;32;20245;-87
2022/10/28 05:41:46;;;;;;;44.80;22.10;;;;;;;;;;4437436;32;20213;-88
2022/10/28 05:44:13;;;;;;;56.40;23.77;;;;;;;;;;4436928;32;20669;-86
2022/10/28 05:46:43;;;;;;;40.93;23.67;;;;;;;;;;4438069;32;20221;-86
2022/10/28 05:49:10;;;;;;;42.53;21.67;;;;;;;;;;4437508;32;20308;-86
2022/10/28 05:51:37;;;;;;;56.57;21.50;;;;;;;;;;4437562;32;20254;-86
2022/10/28 05:54:04;;;;;;;44.47;21.67;;;;;;;;;;4437404;32;20618;-86
2022/10/28 05:56:32;;;;;;;52.33;22.10;;;;;;;;;;4437448;32;20238;-86
2022/10/28 05:58:59;;;;;;;41.83;22.53;;;;;;;;;;4437178;32;20635;-86
2022/10/28 06:01:26;;;;;;;36.20;22.03;;;;;;;;;;4438057;32;20265;-86
2022/10/28 06:03:53;;;;;;;53.10;24.50;;;;;;;;;;4441671;32;20242;-86
2022/10/28 06:06:29;;;;;;;44.33;23.03;;;;;;;;;;4444071;32;20244;-86
2022/10/28 06:08:56;;;;;;;45.77;20.97;;;;;;;;;;4441430;32;20250;-86
2022/10/28 06:11:23;;;;;;;42.80;22.50;;;;;;;;;;4438845;32;20205;-86
2022/10/28 06:13:51;;;;;;;48.70;22.43;;;;;;;;;;4438628;32;20224;-86
2022/10/28 06:16:17;;;;;;;34.50;20.67;;;;;;;;;;4437654;32;20201;-86
2022/10/28 06:18:44;;;;;;;45.80;25.40;;;;;;;;;;4437104;32;20265;-86
2022/10/28 06:21:11;;;;;;;59.10;33.07;;;;;;;;;;4437648;32;20213;-85
2022/10/28 06:23:38;;;;;;;68.83;38.40;;;;;;;;;;4436943;32;20217;-85
2022/10/28 06:26:06;;;;;;;50.83;32.97;;;;;;;;;;4436574;32;20730;-85
2022/10/28 06:28:39;;;;;;;56.13;30.40;;;;;;;;;;4437053;32;20717;-86
2022/10/28 06:31:09;;;;;;;48.57;24.40;;;;;;;;;;4437649;32;20209;-86
2022/10/28 06:33:47;;;;;;;37.43;18.13;;;;;;;;;;4436810;32;20209;-86
2022/10/28 06:36:20;;;;;;;37.67;17.97;;;;;;;;;;4437010;32;20250;-86
2022/10/28 06:38:49;;;;;;;45.60;20.63;;;;;;;;;;4437012;32;20343;-86
2022/10/28 06:41:16;;;;;;;49.73;18.93;;;;;;;;;;4437500;32;20228;-86
2022/10/28 06:43:43;;;;;;;44.87;20.93;;;;;;;;;;4435946;32;20240;-86
2022/10/28 06:46:11;;;;;;;43.77;22.00;;;;;;;;;;4436682;32;20221;-86
2022/10/28 06:48:40;;;;;;;50.97;22.57;;;;;;;;;;4437396;32;20205;-86
2022/10/28 06:51:06;;;;;;;57.33;22.57;;;;;;;;;;4437571;32;20240;-86
2022/10/28 06:53:33;;;;;;;31.17;19.53;;;;;;;;;;4436809;32;20730;-86
2022/10/28 06:56:00;;;;;;;30.77;17.43;;;;;;;;;;4437429;32;20213;-86
2022/10/28 06:58:27;;;;;;;23.53;13.73;;;;;;;;;;4436540;32;20209;-86
2022/10/28 07:00:54;;;;;;;18.80;12.60;;;;;;;;;;4437463;32;20204;-86
2022/10/28 07:03:22;;;;;;;28.13;11.23;;;;;;;;;;4437583;32;20549;-86
2022/10/28 07:05:50;;;;;;;14.07;9.53;;;;;;;;;;4436729;32;20282;-86
2022/10/28 07:08:17;;;;;;;29.67;8.77;;;;;;;;;;4436675;32;20282;-87
2022/10/28 07:10:44;;;;;;;21.43;9.00;;;;;;;;;;4436481;32;20285;-86
2022/10/28 07:13:11;;;;;;;27.17;8.17;;;;;;;;;;4437190;32;20205;-85
2022/10/28 07:15:38;;;;;;;24.93;8.03;;;;;;;;;;4436660;32;20284;-86
2022/10/28 07:18:06;;;;;;;14.00;6.87;;;;;;;;;;4437314;32;20254;-86
2022/10/28 07:20:34;;;;;;;10.53;6.50;;;;;;;;;;4436724;32;20241;-86
2022/10/28 07:23:02;;;;;;;12.40;7.10;;;;;;;;;;4436624;32;20264;-86
2022/10/28 07:25:30;;;;;;;24.30;9.73;;;;;;;;;;4436589;32;20292;-86
2022/10/28 07:28:00;;;;;;;29.53;12.40;;;;;;;;;;4436591;32;20239;-86
2022/10/28 07:30:28;;;;;;;20.43;14.13;;;;;;;;;;4436512;32;20225;-86
2022/10/28 07:32:55;;;;;;;20.80;11.60;;;;;;;;;;4436483;32;20268;-86
2022/10/28 07:35:22;;;;;;;14.67;7.87;;;;;;;;;;4435457;32;20296;-86
2022/10/28 07:37:50;;;;;;;11.37;7.77;;;;;;;;;;4438629;32;20204;-86
2022/10/28 07:40:18;;;;;;;18.40;7.97;;;;;;;;;;4439105;32;20225;-86
2022/10/28 07:42:44;;;;;;;20.93;11.43;;;;;;;;;;4439254;32;20645;-86
2022/10/28 07:45:15;;;;;;;22.67;10.67;;;;;;;;;;4439044;32;20220;-86
2022/10/28 07:47:43;;;;;;;14.73;9.27;;;;;;;;;;4439854;32;20284;-86
2022/10/28 07:50:10;;;;;;;19.53;9.13;;;;;;;;;;4439741;32;20261;-86
2022/10/28 07:52:39;;;;;;;13.50;8.17;;;;;;;;;;4439388;32;20281;-86
2022/10/28 07:55:08;;;;;;;16.47;8.50;;;;;;;;;;4439226;32;20258;-86
2022/10/28 07:57:36;;;;;;;14.57;9.27;;;;;;;;;;4439065;32;20304;-86
2022/10/28 08:00:08;;;;;;;22.07;9.50;;;;;;;;;;4439188;32;20588;-86
2022/10/28 08:02:36;;;;;;;16.63;10.10;;;;;;;;;;4439194;32;20217;-86
2022/10/28 08:05:05;;;;;;;17.67;10.27;;;;;;;;;;4438865;32;20633;-86
2022/10/28 08:07:32;;;;;;;21.23;10.07;;;;;;;;;;4438783;32;20372;-86
2022/10/28 08:09:59;;;;;;;19.80;11.37;;;;;;;;;;4437760;32;20282;-86
2022/10/28 08:12:29;;;;;;;13.73;10.00;;;;;;;;;;4437744;32;20577;-86
2022/10/28 08:14:56;;;;;;;17.60;11.13;;;;;;;;;;4438920;32;20208;-86
2022/10/28 08:17:27;;;;;;;33.58;15.02;;;;;;;;;;4440743;32;20229;-87
2022/10/28 08:19:56;;;;;;;23.83;12.20;;;;;;;;;;4439323;32;20213;-86
2022/10/28 08:22:23;;;;;;;21.83;11.07;;;;;;;;;;4438560;32;20217;-86
2022/10/28 08:24:50;;;;;;;16.40;11.50;;;;;;;;;;4438294;32;20551;-86
2022/10/28 08:27:17;;;;;;;23.67;12.00;;;;;;;;;;4438420;32;20670;-86
2022/10/28 08:29:45;;;;;;;18.33;11.80;;;;;;;;;;4439084;32;20221;-87
2022/10/28 08:32:12;;;;;;;22.40;12.73;;;;;;;;;;4437975;32;20340;-85
2022/10/28 08:34:41;;;;;;;27.60;11.13;;;;;;;;;;4438967;32;20241;-86
2022/10/28 08:37:08;;;;;;;18.80;10.50;;;;;;;;;;4438649;32;20557;-86
2022/10/28 08:39:34;;;;;;;20.58;12.00;;;;;;;;;;4437458;32;20581;-86
2022/10/28 08:42:21;;;;;;;20.43;11.73;;;;;;;;;;4438327;32;20261;-86
2022/10/28 08:47:57;;;;;;;18.25;11.50;;;;;;;;;;4497486;31;20668;-85
2022/10/28 08:50:30;;;;;;;21.15;9.95;;;;;;;;;;4482204;32;20203;-85
2022/10/28 08:53:01;;;;;;;20.40;10.57;;;;;;;;;;4482243;32;20219;-85
2022/10/28 08:55:31;;;;;;;20.83;9.97;;;;;;;;;;4482188;32;20211;-85
2022/10/28 08:58:07;;;;;;;18.65;9.40;;;;;;;;;;4482174;32;20306;-85
2022/10/28 09:00:36;;;;;;;26.48;9.50;;;;;;;;;;4482015;32;20237;-85
2022/10/28 09:03:24;;;;;;;14.70;8.63;;;;;;;;;;4482157;32;20226;-85
2022/10/28 09:05:56;;;;;;;20.23;8.68;;;;;;;;;;4481767;32;20223;-85
2022/10/28 09:08:27;;;;;;;25.53;8.40;;;;;;;;;;4482048;32;20213;-85
2022/10/28 09:11:13;;;;;;;20.15;7.57;;;;;;;;;;4481803;32;20268;-85
2022/10/28 09:13:53;;;;;;;21.48;7.65;;;;;;;;;;4481696;32;20216;-85
2022/10/28 09:16:36;;;;;;;10.30;6.62;;;;;;;;;;4481589;32;20233;-85
2022/10/28 09:19:14;;;;;;;15.07;6.47;;;;;;;;;;4481802;32;20215;-85
2022/10/28 09:21:46;;;;;;;14.38;6.50;;;;;;;;;;4481393;32;20234;-85
2022/10/28 09:24:18;;;;;;;14.13;7.40;;;;;;;;;;4481751;32;20200;-85
2022/10/28 09:26:56;;;;;;;12.02;6.70;;;;;;;;;;4480254;32;20255;-85
2022/10/28 09:29:39;;;;;;;10.88;6.18;;;;;;;;;;4481466;32;20676;-85
2022/10/28 09:32:14;;;;;;;20.90;7.12;;;;;;;;;;4481568;32;20278;-88
2022/10/28 09:34:47;;;;;;;16.65;6.30;;;;;;;;;;4481768;32;20241;-85
2022/10/28 09:37:18;;;;;;;14.18;6.55;;;;;;;;;;4481653;32;20200;-85
2022/10/28 09:39:48;;;;;;;8.73;5.40;;;;;;;;;;4481469;32;20541;-85
2022/10/28 09:42:21;;;;;;;10.27;5.37;;;;;;;;;;4481605;32;20212;-85
2022/10/28 09:44:51;;;;;;;11.57;5.68;;;;;;;;;;4481384;32;20220;-85
2022/10/28 09:47:22;;;;;;;13.85;6.22;;;;;;;;;;4480867;32;20231;-85
2022/10/28 09:49:54;;;;;;;12.48;6.07;;;;;;;;;;4481352;32;20276;-85
2022/10/28 09:52:25;;;;;;;13.05;5.45;;;;;;;;;;4480247;32;20531;-85
2022/10/28 09:54:56;;;;;;;19.77;7.75;;;;;;;;;;4481280;32;20272;-85
2022/10/28 09:57:31;;;;;;;9.63;4.70;;;;;;;;;;4478133;32;20233;-85
2022/10/28 09:59:59;;;;;;;13.68;4.40;;;;;;;;;;4470496;32;20215;-85
2022/10/28 10:02:28;;;;;;;8.93;2.90;;;;;;;;;;4470786;32;20389;-85
2022/10/28 10:05:01;;;;;;;8.80;3.10;;;;;;;;;;4470600;32;20228;-85
2022/10/28 10:07:36;;;;;;;7.90;3.00;;;;;;;;;;4456768;32;20294;-85
2022/10/28 10:10:11;;;;;;;4.47;3.00;;;;;;;;;;4469236;32;20522;-85
2022/10/28 10:12:39;;;;;;;5.43;3.00;;;;;;;;;;4470906;32;20196;-85
2022/10/28 10:15:17;;;;;;;5.03;2.67;;;;;;;;;;4470125;32;20224;-85
2022/10/28 10:17:47;;;;;;;4.82;2.67;;;;;;;;;;4470423;32;20219;-85
2022/10/28 10:20:17;;;;;;;6.90;3.30;;;;;;;;;;4469763;32;20288;-85
2022/10/28 10:22:45;;;;;;;12.50;2.50;;;;;;;;;;4470041;32;20208;-85
2022/10/28 10:25:29;;;;;;;6.60;3.60;;;;;;;;;;4470434;32;20220;-86
2022/10/28 10:28:00;;;;;;;7.10;3.28;;;;;;;;;;4470395;32;20230;-85
2022/10/28 10:30:31;;;;;;;3.83;2.78;;;;;;;;;;4469871;32;20374;-85
2022/10/28 10:32:58;;;;;;;5.82;3.05;;;;;;;;;;4470514;32;20279;-86
2022/10/28 10:35:34;;;;;;;4.57;2.10;;;;;;;;;;4472624;32;20606;-84
2022/10/28 10:38:04;;;;;;;3.67;2.08;;;;;;;;;;4473365;32;20220;-85
2022/10/28 10:40:33;;;;;;;4.65;1.95;;;;;;;;;;4471884;32;20280;-85
2022/10/28 10:43:20;;;;;;;4.97;2.30;;;;;;;;;;4480991;32;20247;-85
2022/10/28 10:45:52;;;;;;;7.22;2.10;;;;;;;;;;4484956;32;20200;-84
2022/10/28 10:48:19;;;;;;;4.93;2.50;;;;;;;;;;4486040;32;20287;-86
2022/10/28 10:50:48;;;;;;;16.92;4.00;;;;;;;;;;4476945;32;20212;-87
2022/10/28 10:53:24;;;;;;;7.43;3.35;;;;;;;;;;4472923;32;20220;-87
2022/10/28 10:56:01;;;;;;;6.18;2.90;;;;;;;;;;4472871;32;20267;-87
2022/10/28 10:58:32;;;;;;;5.15;2.53;;;;;;;;;;4470598;32;20715;-87
2022/10/28 11:01:06;;;;;;;5.22;2.50;;;;;;;;;;4469341;32;20714;-86
2022/10/28 11:03:38;;;;;;;3.42;2.12;;;;;;;;;;4469934;32;20276;-87
2022/10/28 11:06:10;;;;;;;5.80;2.60;;;;;;;;;;4468738;32;20240;-86
2022/10/28 11:08:42;;;;;;;3.85;2.28;;;;;;;;;;4468628;32;20338;-87
2022/10/28 11:11:13;;;;;;;5.07;2.20;;;;;;;;;;4469655;32;20204;-86
2022/10/28 11:13:41;;;;;;;4.78;2.28;;;;;;;;;;4467857;32;20263;-86
2022/10/28 11:16:20;;;;;;;5.30;2.15;;;;;;;;;;4469767;32;20267;-86
2022/10/28 11:18:48;;;;;;;4.30;2.20;;;;;;;;;;4469431;32;20220;-86
2022/10/28 11:21:42;;;;;;;6.15;2.90;;;;;;;;;;4469683;32;20269;-86
2022/10/28 11:24:25;;;;;;;3.70;2.50;;;;;;;;;;4469825;32;20295;-86
2022/10/28 11:27:02;;;;;;;4.65;2.30;;;;;;;;;;4469429;32;20230;-86
2022/10/28 11:29:29;;;;;;;15.25;5.78;;;;;;;;;;4469043;32;20257;-86
2022/10/28 11:32:30;;;;;;;3.28;2.22;;;;;;;;;;4467771;32;20240;-86
2022/10/28 11:35:11;;;;;;;11.12;4.18;;;;;;;;;;4457726;32;20236;-86
2022/10/28 11:37:57;;;;;;;6.78;2.47;;;;;;;;;;4469308;32;20228;-87
2022/10/28 11:40:33;;;;;;;5.68;2.25;;;;;;;;;;4469413;32;20200;-87
2022/10/28 11:43:18;;;;;;;3.47;2.35;;;;;;;;;;4469208;32;20208;-87
2022/10/28 11:45:52;;;;;;;7.53;1.95;;;;;;;;;;4468890;32;20296;-87
2022/10/28 11:48:43;;;;;;;3.30;1.85;;;;;;;;;;4469323;32;20207;-86
2022/10/28 11:51:23;;;;;;;7.18;2.85;;;;;;;;;;4467505;32;20272;-86
2022/10/28 11:54:19;;;;;;;6.75;1.87;;;;;;;;;;4469357;32;20297;-86
2022/10/28 11:56:49;;;;;;;3.83;1.98;;;;;;;;;;4469219;32;20267;-86
2022/10/28 12:00:01;;;;;;;3.47;1.92;;;;;;;;;;4469095;32;20266;-86
2022/10/28 12:02:42;;;;;;;5.53;2.12;;;;;;;;;;4457137;32;20732;-86
2022/10/28 12:05:18;;;;;;;3.55;2.17;;;;;;;;;;4455689;32;20676;-86
2022/10/28 12:08:04;;;;;;;4.03;2.42;;;;;;;;;;4469197;32;20212;-86
2022/10/28 12:10:42;;;;;;;6.45;1.98;;;;;;;;;;4469024;32;20212;-87
2022/10/28 12:13:18;;;;;;;5.05;2.60;;;;;;;;;;4468581;32;20219;-86
2022/10/28 12:15:54;;;;;;;3.20;2.00;;;;;;;;;;4468887;32;20216;-87
2022/10/28 12:18:26;;;;;;;3.47;1.98;;;;;;;;;;4468445;32;20220;-86
2022/10/28 12:20:59;;;;;;;4.12;2.22;;;;;;;;;;4468843;32;20270;-86
2022/10/28 12:23:27;;;;;;;3.90;2.22;;;;;;;;;;4468438;32;20216;-85
2022/10/28 12:26:00;;;;;;;5.28;2.83;;;;;;;;;;4468685;32;20240;-86
2022/10/28 12:28:33;;;;;;;7.15;2.55;;;;;;;;;;4468494;32;20219;-86
2022/10/28 12:31:01;;;;;;;4.90;2.10;;;;;;;;;;4468607;32;20241;-86
2022/10/28 12:33:33;;;;;;;3.53;2.00;;;;;;;;;;4468132;32;20275;-86
2022/10/28 12:36:18;;;;;;;7.85;2.33;;;;;;;;;;4468720;32;20286;-86
2022/10/28 12:38:49;;;;;;;4.53;1.80;;;;;;;;;;4468771;32;20216;-86
2022/10/28 12:41:24;;;;;;;5.32;2.22;;;;;;;;;;4468790;32;20632;-86
2022/10/28 12:43:55;;;;;;;3.12;1.95;;;;;;;;;;4468422;32;20270;-87
2022/10/28 12:46:31;;;;;;;6.25;2.00;;;;;;;;;;4468052;32;20224;-86
2022/10/28 12:49:05;;;;;;;6.47;2.35;;;;;;;;;;4468501;32;20286;-87
2022/10/28 12:51:39;;;;;;;2.80;1.80;;;;;;;;;;4467718;32;20232;-86
2022/10/28 12:54:21;;;;;;;3.92;1.70;;;;;;;;;;4468382;32;20288;-87
2022/10/28 12:57:01;;;;;;;3.83;2.22;;;;;;;;;;4468612;32;20286;-87
2022/10/28 12:59:35;;;;;;;4.28;1.52;;;;;;;;;;4468284;32;20309;-85
2022/10/28 13:02:04;;;;;;;5.12;1.60;;;;;;;;;;4467716;32;20273;-85
2022/10/28 13:04:31;;;;;;;6.43;1.65;;;;;;;;;;4468026;32;20219;-87
2022/10/28 13:07:20;;;;;;;3.33;1.77;;;;;;;;;;4467897;32;20314;-86
2022/10/28 13:09:53;;;;;;;3.70;1.48;;;;;;;;;;4454990;32;20240;-87
2022/10/28 13:12:46;;;;;;;4.75;1.83;;;;;;;;;;4468342;32;20237;-86
2022/10/28 13:15:39;;;;;;;5.85;1.67;;;;;;;;;;4467986;32;20238;-86
2022/10/28 13:18:34;;;;;;;2.72;1.48;;;;;;;;;;4468266;32;20271;-86
2022/10/28 13:21:15;;;;;;;3.08;2.08;;;;;;;;;;4466562;32;20262;-85
2022/10/28 13:23:50;;;;;;;5.53;2.22;;;;;;;;;;4467718;32;20271;-85
2022/10/28 13:26:22;;;;;;;4.68;1.77;;;;;;;;;;4468188;32;20223;-84
2022/10/28 13:28:55;;;;;;;6.68;2.00;;;;;;;;;;4468030;32;20662;-86
2022/10/28 13:31:22;;;;;;;2.72;1.77;;;;;;;;;;4467330;32;20311;-86
2022/10/28 13:33:56;;;;;;;3.92;1.48;;;;;;;;;;4470045;32;20245;-85
2022/10/28 13:36:27;;;;;;;2.83;1.73;;;;;;;;;;4470805;32;20656;-86
2022/10/28 13:38:58;;;;;;;4.12;1.77;;;;;;;;;;4457381;32;20220;-85
2022/10/28 13:41:43;;;;;;;5.03;2.00;;;;;;;;;;4470655;32;20653;-85
2022/10/28 13:44:25;;;;;;;4.35;1.87;;;;;;;;;;4471138;32;20234;-85
2022/10/28 13:47:26;;;;;;;3.90;1.85;;;;;;;;;;4470944;32;20228;-85
2022/10/28 13:50:31;;;;;;;4.00;1.85;;;;;;;;;;4471949;32;20195;-86
2022/10/28 13:53:46;;;;;;;6.00;2.30;;;;;;;;;;4466717;32;20231;-86
2022/10/28 13:56:47;;;;;;;11.25;1.75;;;;;;;;;;4455455;32;20239;-85
2022/10/28 13:59:39;;;;;;;5.20;1.83;;;;;;;;;;4465824;32;20308;-85
2022/10/28 14:02:21;;;;;;;9.40;1.98;;;;;;;;;;4483444;32;20356;-84
2022/10/28 14:04:55;;;;;;;4.22;2.10;;;;;;;;;;4478079;32;20315;-85
2022/10/28 14:07:26;;;;;;;4.60;2.80;;;;;;;;;;4479251;32;20291;-85
2022/10/28 14:10:07;;;;;;;16.67;3.78;;;;;;;;;;4482879;32;20175;-85
2022/10/28 14:12:43;;;;;;;6.68;1.92;;;;;;;;;;4479874;32;20216;-85
2022/10/28 14:15:24;;;;;;;6.45;2.05;;;;;;;;;;4471040;32;20215;-85
2022/10/28 14:17:56;;;;;;;3.28;1.92;;;;;;;;;;4471128;32;20227;-86
2022/10/28 14:20:34;;;;;;;3.90;1.95;;;;;;;;;;4471088;32;20215;-86
2022/10/28 14:23:45;;;;;;;8.13;2.85;;;;;;;;;;4471141;32;20275;-85
2022/10/28 14:26:12;;;;;;;3.72;2.03;;;;;;;;;;4472285;32;20224;-85
2022/10/28 14:28:55;;;;;;;5.50;2.28;;;;;;;;;;4471429;32;20268;-85
2022/10/28 14:31:54;;;;;;;3.28;2.05;;;;;;;;;;4474798;32;20216;-85
2022/10/28 14:34:37;;;;;;;5.62;2.15;;;;;;;;;;4471122;32;20596;-85
2022/10/28 14:37:43;;;;;;;4.47;2.20;;;;;;;;;;4470739;32;20226;-87
2022/10/28 14:40:31;;;;;;;4.15;1.92;;;;;;;;;;4437612;32;20276;-87
2022/10/28 14:43:14;;;;;;;4.57;2.72;;;;;;;;;;4474587;32;20276;-84
2022/10/28 14:45:51;;;;;;;24.90;3.72;;;;;;;;;;4473162;32;20220;-85
2022/10/28 14:48:44;;;;;;;8.70;2.42;;;;;;;;;;4457579;32;20306;-87
2022/10/28 14:51:15;;;;;;;8.38;2.97;;;;;;;;;;4470042;32;20219;-86
2022/10/28 14:53:46;;;;;;;8.48;2.55;;;;;;;;;;4472559;32;20220;-86
2022/10/28 14:56:20;;;;;;;13.55;8.90;;;;;;;;;;4473928;32;20212;-87
2022/10/28 14:58:47;;;;;;;8.15;4.28;;;;;;;;;;4473694;32;20639;-85
2022/10/28 15:01:22;;;;;;;6.00;3.53;;;;;;;;;;4475494;32;20253;-87
2022/10/28 15:03:54;;;;;;;18.17;8.43;;;;;;;;;;4473771;32;20207;-86
2022/10/28 15:06:28;;;;;;;13.73;4.65;;;;;;;;;;4473535;32;20245;-87